Time,TemperatureF,DewpointF,PressureIn,WindDirection,WindDirectionDegrees,WindSpeedMPH,WindSpeedGustMPH,Humidity,HourlyPrecipIn,Conditions,Clouds,dailyrainin,SoftwareType,DateUTC
2013-02-12 00:02:00,42.9,41.6,30.32,SE,127,0.0,0.0,95,0.00,,,0.00,WeatherCatV1.10B1784,2013-02-12 08:02:00,
2013-02-12 00:07:00,42.9,41.6,30.32,SE,127,0.0,0.0,95,0.00,,,0.00,WeatherCatV1.10B1784,2013-02-12 08:07:00,
2013-02-12 00:12:00,43.0,41.7,30.32,SE,127,1.0,1.0,95,0.00,,,0.00,WeatherCatV1.10B1784,2013-02-12 08:12:00,
2013-02-12 00:17:00,42.9,41.6,30.32,SE,127,0.0,0.0,95,0.00,,,0.00,WeatherCatV1.10B1784,2013-02-12 08:17:00,
2013-02-12 00:22:00,43.0,41.7,30.32,SSE,158,0.0,1.0,95,0.00,,,0.00,WeatherCatV1.10B1784,2013-02-12 08:22:00,
2013-02-12 00:27:00,42.9,41.6,30.32,SE,124,0.0,1.0,95,0.00,,,0.00,WeatherCatV1.10B1784,2013-02-12 08:27:00,
2013-02-12 00:32:00,42.9,41.6,30.32,SE,124,0.0,0.0,95,0.00,,,0.00,WeatherCatV1.10B1784,2013-02-12 08:32:00,
2013-02-12 00:37:00,43.0,41.7,30.32,SE,124,1.0,1.0,95,0.00,,,0.00,WeatherCatV1.10B1784,2013-02-12 08:37:00,
2013-02-12 00:42:00,42.9,41.6,30.32,ESE,122,1.0,1.0,95,0.00,,,0.00,WeatherCatV1.10B1784,2013-02-12 08:42:00,
2013-02-12 00:47:00,43.0,41.7,30.32,ESE,120,1.0,3.0,95,0.00,,,0.00,WeatherCatV1.10B1784,2013-02-12 08:47:00,
2013-02-12 00:52:00,43.1,41.8,30.32,ESE,120,0.0,1.0,95,0.00,,,0.00,WeatherCatV1.10B1784,2013-02-12 08:52:00,
2013-02-12 00:57:00,43.1,41.8,30.33,ESE,107,3.0,3.0,95,0.00,,,0.00,WeatherCatV1.10B1784,2013-02-12 08:57:00,
2013-02-12 01:02:00,43.1,41.8,30.33,ESE,118,2.0,4.0,95,0.00,,,0.00,WeatherCatV1.10B1784,2013-02-12 09:02:00,
2013-02-12 01:07:00,43.0,41.7,30.33,ESE,119,3.0,4.0,95,0.00,,,0.00,WeatherCatV1.10B1784,2013-02-12 09:07:00,
2013-02-12 01:12:00,43.0,41.7,30.33,ESE,107,1.0,3.0,95,0.00,,,0.00,WeatherCatV1.10B1784,2013-02-12 09:12:00,
2013-02-12 01:17:00,43.0,41.7,30.33,SE,124,0.0,2.0,95,0.00,,,0.00,WeatherCatV1.10B1784,2013-02-12 09:17:00,
2013-02-12 01:22:00,43.0,41.7,30.32,SE,124,1.0,2.0,95,0.00,,,0.00,WeatherCatV1.10B1784,2013-02-12 09:22:00,
2013-02-12 01:27:00,43.1,42.0,30.32,ESE,119,1.0,4.0,96,0.00,,,0.00,WeatherCatV1.10B1784,2013-02-12 09:27:00,
2013-02-12 01:32:00,43.1,42.0,30.32,SE,129,2.0,4.0,96,0.00,,,0.00,WeatherCatV1.10B1784,2013-02-12 09:32:00,
2013-02-12 01:37:00,43.2,42.1,30.32,ESE,116,1.0,4.0,96,0.00,,,0.00,WeatherCatV1.10B1784,2013-02-12 09:37:00,
2013-02-12 01:42:00,43.2,42.1,30.32,East,101,2.0,3.0,96,0.00,,,0.00,WeatherCatV1.10B1784,2013-02-12 09:42:00,
2013-02-12 01:47:00,43.3,42.2,30.32,ESE,119,3.0,4.0,96,0.00,,,0.00,WeatherCatV1.10B1784,2013-02-12 09:47:00,
2013-02-12 01:52:00,43.3,42.2,30.32,ESE,121,1.0,3.0,96,0.00,,,0.00,WeatherCatV1.10B1784,2013-02-12 09:52:00,
2013-02-12 01:57:00,43.2,42.1,30.33,SE,139,3.0,3.0,96,0.00,,,0.00,WeatherCatV1.10B1784,2013-02-12 09:57:00,
2013-02-12 02:02:00,43.1,42.0,30.33,East,89,1.0,4.0,96,0.00,,,0.00,WeatherCatV1.10B1784,2013-02-12 10:02:00,
2013-02-12 02:07:00,43.0,41.9,30.33,ESE,113,2.0,5.0,96,0.00,,,0.00,WeatherCatV1.10B1784,2013-02-12 10:07:00,
2013-02-12 02:12:00,43.0,41.9,30.33,SE,124,1.0,4.0,96,0.00,,,0.00,WeatherCatV1.10B1784,2013-02-12 10:12:00,
2013-02-12 02:17:00,42.9,41.8,30.32,SE,132,1.0,3.0,96,0.00,,,0.00,WeatherCatV1.10B1784,2013-02-12 10:17:00,
2013-02-12 02:22:00,42.9,41.8,30.32,ESE,118,1.0,2.0,96,0.00,,,0.00,WeatherCatV1.10B1784,2013-02-12 10:22:00,
2013-02-12 02:27:00,42.9,41.8,30.33,SSE,148,0.0,2.0,96,0.00,,,0.00,WeatherCatV1.10B1784,2013-02-12 10:27:00,
2013-02-12 02:32:00,42.9,41.8,30.33,ESE,120,0.0,1.0,96,0.00,,,0.00,WeatherCatV1.10B1784,2013-02-12 10:32:00,
2013-02-12 02:37:00,42.9,41.8,30.33,ESE,115,0.0,1.0,96,0.00,,,0.00,WeatherCatV1.10B1784,2013-02-12 10:37:00,
2013-02-12 02:42:00,42.9,41.8,30.33,ESE,114,0.0,1.0,96,0.00,,,0.00,WeatherCatV1.10B1784,2013-02-12 10:42:00,
2013-02-12 02:47:00,42.9,41.8,30.33,ESE,114,0.0,0.0,96,0.00,,,0.00,WeatherCatV1.10B1784,2013-02-12 10:47:00,
2013-02-12 02:52:00,42.8,41.7,30.33,East,100,1.0,1.0,96,0.00,,,0.00,WeatherCatV1.10B1784,2013-02-12 10:52:00,
2013-02-12 02:57:00,42.7,41.6,30.33,ESE,120,0.0,1.0,96,0.00,,,0.00,WeatherCatV1.10B1784,2013-02-12 10:57:00,
2013-02-12 03:02:00,42.7,41.6,30.32,ESE,120,0.0,1.0,96,0.00,,,0.00,WeatherCatV1.10B1784,2013-02-12 11:02:00,
2013-02-12 03:07:00,42.6,41.5,30.32,SE,134,4.0,4.0,96,0.00,,,0.00,WeatherCatV1.10B1784,2013-02-12 11:07:00,
2013-02-12 03:12:00,42.6,41.5,30.32,SSE,150,0.0,4.0,96,0.00,,,0.00,WeatherCatV1.10B1784,2013-02-12 11:12:00,
2013-02-12 03:17:00,42.7,41.6,30.32,SE,139,0.0,2.0,96,0.00,,,0.00,WeatherCatV1.10B1784,2013-02-12 11:17:00,
2013-02-12 03:22:00,42.6,41.5,30.31,SE,136,0.0,2.0,96,0.00,,,0.00,WeatherCatV1.10B1784,2013-02-12 11:22:00,
2013-02-12 03:27:00,42.5,41.4,30.31,ESE,104,1.0,3.0,96,0.00,,,0.00,WeatherCatV1.10B1784,2013-02-12 11:27:00,
2013-02-12 03:32:00,42.4,41.3,30.31,East,99,4.0,4.0,96,0.00,,,0.00,WeatherCatV1.10B1784,2013-02-12 11:32:00,
2013-02-12 03:37:00,42.3,41.2,30.31,SE,125,4.0,4.0,96,0.00,,,0.00,WeatherCatV1.10B1784,2013-02-12 11:37:00,
2013-02-12 03:42:00,42.4,41.1,30.31,ESE,111,0.0,3.0,95,0.00,,,0.00,WeatherCatV1.10B1784,2013-02-12 11:42:00,
2013-02-12 03:47:00,42.4,41.1,30.31,ESE,112,0.0,1.0,95,0.00,,,0.00,WeatherCatV1.10B1784,2013-02-12 11:47:00,
2013-02-12 03:52:00,42.3,41.0,30.31,ESE,110,2.0,2.0,95,0.00,,,0.00,WeatherCatV1.10B1784,2013-02-12 11:52:00,
2013-02-12 03:57:00,42.2,40.9,30.31,SE,127,3.0,4.0,95,0.00,,,0.00,WeatherCatV1.10B1784,2013-02-12 11:57:00,
2013-02-12 04:02:00,42.3,41.0,30.31,SE,127,1.0,2.0,95,0.00,,,0.00,WeatherCatV1.10B1784,2013-02-12 12:02:00,
2013-02-12 04:07:00,42.3,41.0,30.31,ESE,106,0.0,2.0,95,0.00,,,0.00,WeatherCatV1.10B1784,2013-02-12 12:07:00,
2013-02-12 04:12:00,42.3,41.0,30.31,SSE,150,2.0,3.0,95,0.00,,,0.00,WeatherCatV1.10B1784,2013-02-12 12:12:00,
2013-02-12 04:17:00,42.3,41.0,30.31,SW,224,0.0,0.0,95,0.00,,,0.00,WeatherCatV1.10B1784,2013-02-12 12:17:00,
2013-02-12 04:22:00,42.3,41.0,30.31,SE,141,2.0,4.0,95,0.00,,,0.00,WeatherCatV1.10B1784,2013-02-12 12:22:00,
2013-02-12 04:27:00,42.4,41.1,30.31,SE,139,0.0,2.0,95,0.00,,,0.00,WeatherCatV1.10B1784,2013-02-12 12:27:00,
2013-02-12 04:32:00,42.4,41.1,30.31,ESE,117,2.0,3.0,95,0.00,,,0.00,WeatherCatV1.10B1784,2013-02-12 12:32:00,
2013-02-12 04:37:00,42.5,41.2,30.32,East,100,2.0,3.0,95,0.00,,,0.00,WeatherCatV1.10B1784,2013-02-12 12:37:00,
2013-02-12 04:42:00,42.5,41.2,30.32,SSW,210,2.0,3.0,95,0.00,,,0.00,WeatherCatV1.10B1784,2013-02-12 12:42:00,
2013-02-12 04:47:00,42.6,41.3,30.32,SE,124,2.0,3.0,95,0.00,,,0.00,WeatherCatV1.10B1784,2013-02-12 12:47:00,
2013-02-12 04:52:00,42.6,41.3,30.31,ESE,123,2.0,3.0,95,0.00,,,0.00,WeatherCatV1.10B1784,2013-02-12 12:52:00,
2013-02-12 04:57:00,42.6,41.3,30.31,ESE,116,4.0,7.0,95,0.00,,,0.00,WeatherCatV1.10B1784,2013-02-12 12:57:00,
2013-02-12 05:02:00,42.7,41.1,30.31,ESE,117,0.0,4.0,94,0.00,,,0.00,WeatherCatV1.10B1784,2013-02-12 13:02:00,
2013-02-12 05:07:00,42.7,41.1,30.31,SE,130,3.0,5.0,94,0.00,,,0.00,WeatherCatV1.10B1784,2013-02-12 13:07:00,
2013-02-12 05:12:00,42.7,41.1,30.31,ESE,110,2.0,5.0,94,0.00,,,0.00,WeatherCatV1.10B1784,2013-02-12 13:12:00,
2013-02-12 05:17:00,42.8,41.2,30.32,ESE,102,2.0,8.0,94,0.00,,,0.00,WeatherCatV1.10B1784,2013-02-12 13:17:00,
2013-02-12 05:22:00,42.8,41.2,30.32,SE,125,2.0,7.0,94,0.00,,,0.00,WeatherCatV1.10B1784,2013-02-12 13:22:00,
2013-02-12 05:27:00,42.8,41.2,30.32,SSE,152,3.0,6.0,94,0.00,,,0.00,WeatherCatV1.10B1784,2013-02-12 13:27:00,
2013-02-12 05:32:00,42.8,41.2,30.32,ESE,108,2.0,6.0,94,0.00,,,0.00,WeatherCatV1.10B1784,2013-02-12 13:32:00,
2013-02-12 05:37:00,42.8,41.2,30.32,ESE,115,2.0,7.0,94,0.00,,,0.00,WeatherCatV1.10B1784,2013-02-12 13:37:00,
2013-02-12 05:42:00,42.8,41.2,30.32,ESE,122,4.0,6.0,94,0.00,,,0.00,WeatherCatV1.10B1784,2013-02-12 13:42:00,
2013-02-12 05:47:00,42.8,41.2,30.32,East,92,2.0,6.0,94,0.00,,,0.00,WeatherCatV1.10B1784,2013-02-12 13:47:00,
2013-02-12 05:52:00,42.7,41.1,30.32,ESE,110,3.0,4.0,94,0.00,,,0.00,WeatherCatV1.10B1784,2013-02-12 13:52:00,
2013-02-12 05:57:00,42.7,41.1,30.32,SE,127,3.0,4.0,94,0.00,,,0.00,WeatherCatV1.10B1784,2013-02-12 13:57:00,
2013-02-12 06:02:00,42.7,41.1,30.32,ESE,107,5.0,5.0,94,0.00,,,0.00,WeatherCatV1.10B1784,2013-02-12 14:02:00,
2013-02-12 06:07:00,42.7,41.1,30.33,ESE,115,2.0,3.0,94,0.00,,,0.00,WeatherCatV1.10B1784,2013-02-12 14:07:00,
2013-02-12 06:12:00,42.8,41.2,30.32,ESE,117,1.0,5.0,94,0.00,,,0.00,WeatherCatV1.10B1784,2013-02-12 14:12:00,
2013-02-12 06:17:00,42.7,41.1,30.33,ESE,106,0.0,2.0,94,0.00,,,0.00,WeatherCatV1.10B1784,2013-02-12 14:17:00,
2013-02-12 06:22:00,42.8,41.2,30.33,ESE,113,5.0,5.0,94,0.00,,,0.00,WeatherCatV1.10B1784,2013-02-12 14:22:00,
2013-02-12 06:27:00,42.8,41.2,30.33,ESE,110,4.0,6.0,94,0.00,,,0.00,WeatherCatV1.10B1784,2013-02-12 14:27:00,
2013-02-12 06:32:00,42.9,41.3,30.33,SE,134,1.0,3.0,94,0.00,,,0.00,WeatherCatV1.10B1784,2013-02-12 14:32:00,
2013-02-12 06:37:00,42.9,41.3,30.34,ESE,113,1.0,2.0,94,0.00,,,0.00,WeatherCatV1.10B1784,2013-02-12 14:37:00,
2013-02-12 06:42:00,42.9,41.3,30.34,SE,127,4.0,5.0,94,0.00,,,0.00,WeatherCatV1.10B1784,2013-02-12 14:42:00,
2013-02-12 06:48:00,42.9,41.3,30.34,SE,131,0.0,2.0,94,0.00,,,0.00,WeatherCatV1.10B1784,2013-02-12 14:48:00,
2013-02-12 06:53:00,42.9,41.3,30.34,East,85,2.0,3.0,94,0.00,,,0.00,WeatherCatV1.10B1784,2013-02-12 14:53:00,
2013-02-12 06:58:00,42.9,41.3,30.35,SE,131,1.0,3.0,94,0.00,,,0.00,WeatherCatV1.10B1784,2013-02-12 14:58:00,
2013-02-12 07:03:00,42.9,41.3,30.34,ESE,122,0.0,0.0,94,0.00,,,0.00,WeatherCatV1.10B1784,2013-02-12 15:03:00,
2013-02-12 07:08:00,42.8,41.2,30.35,SSW,200,0.0,0.0,94,0.00,,,0.00,WeatherCatV1.10B1784,2013-02-12 15:08:00,
2013-02-12 07:13:00,42.8,41.2,30.35,SSW,193,0.0,0.0,94,0.00,,,0.00,WeatherCatV1.10B1784,2013-02-12 15:13:00,
2013-02-12 07:18:00,42.8,41.2,30.35,ESE,122,1.0,1.0,94,0.00,,,0.00,WeatherCatV1.10B1784,2013-02-12 15:18:00,
2013-02-12 07:23:00,42.8,41.2,30.35,SE,134,0.0,0.0,94,0.00,,,0.00,WeatherCatV1.10B1784,2013-02-12 15:23:00,
2013-02-12 07:28:00,42.7,41.1,30.35,SE,131,1.0,4.0,94,0.00,,,0.00,WeatherCatV1.10B1784,2013-02-12 15:28:00,
2013-02-12 07:33:00,42.7,41.1,30.34,SE,127,1.0,1.0,94,0.00,,,0.00,WeatherCatV1.10B1784,2013-02-12 15:33:00,
2013-02-12 07:38:00,42.7,41.4,30.34,East,96,2.0,7.0,95,0.00,,,0.00,WeatherCatV1.10B1784,2013-02-12 15:38:00,
2013-02-12 07:43:00,42.8,41.5,30.33,South,173,2.0,2.0,95,0.00,,,0.00,WeatherCatV1.10B1784,2013-02-12 15:43:00,
2013-02-12 07:48:00,42.8,41.5,30.33,SE,127,7.0,7.0,95,0.00,,,0.00,WeatherCatV1.10B1784,2013-02-12 15:48:00,
2013-02-12 07:53:00,42.8,41.5,30.33,SSE,150,1.0,5.0,95,0.00,,,0.00,WeatherCatV1.10B1784,2013-02-12 15:53:00,
2013-02-12 07:58:00,42.8,41.5,30.33,ESE,110,2.0,3.0,95,0.00,,,0.00,WeatherCatV1.10B1784,2013-02-12 15:58:00,
2013-02-12 08:03:00,42.8,41.5,30.33,East,99,4.0,4.0,95,0.00,,,0.00,WeatherCatV1.10B1784,2013-02-12 16:03:00,
2013-02-12 08:08:00,42.7,41.4,30.33,SE,136,2.0,6.0,95,0.00,,,0.00,WeatherCatV1.10B1784,2013-02-12 16:08:00,
2013-02-12 08:13:00,42.7,41.4,30.33,SE,127,2.0,6.0,95,0.00,,,0.00,WeatherCatV1.10B1784,2013-02-12 16:13:00,
2013-02-12 08:18:00,42.7,41.4,30.33,ESE,120,2.0,5.0,95,0.00,,,0.00,WeatherCatV1.10B1784,2013-02-12 16:18:00,
2013-02-12 08:23:00,42.8,41.5,30.34,East,93,1.0,4.0,95,0.00,,,0.00,WeatherCatV1.10B1784,2013-02-12 16:23:00,
2013-02-12 08:28:00,42.8,41.5,30.35,ESE,109,2.0,4.0,95,0.00,,,0.00,WeatherCatV1.10B1784,2013-02-12 16:28:00,
2013-02-12 08:33:00,42.8,41.5,30.34,SE,124,2.0,6.0,95,0.00,,,0.00,WeatherCatV1.10B1784,2013-02-12 16:33:00,
2013-02-12 08:38:00,42.9,41.6,30.34,SE,127,4.0,7.0,95,0.00,,,0.00,WeatherCatV1.10B1784,2013-02-12 16:38:00,
2013-02-12 08:43:00,42.9,41.6,30.35,ESE,118,0.0,2.0,95,0.00,,,0.00,WeatherCatV1.10B1784,2013-02-12 16:43:00,
2013-02-12 08:48:00,43.0,41.7,30.35,East,86,5.0,5.0,95,0.00,,,0.00,WeatherCatV1.10B1784,2013-02-12 16:48:00,
2013-02-12 08:53:00,43.0,41.7,30.35,SE,134,4.0,6.0,95,0.00,,,0.00,WeatherCatV1.10B1784,2013-02-12 16:53:00,
2013-02-12 08:58:00,43.0,41.7,30.35,ESE,118,2.0,3.0,95,0.00,,,0.00,WeatherCatV1.10B1784,2013-02-12 16:58:00,
2013-02-12 09:03:00,43.0,41.7,30.34,SSE,155,2.0,5.0,95,0.00,,,0.00,WeatherCatV1.10B1784,2013-02-12 17:03:00,
2013-02-12 09:08:00,43.0,41.7,30.34,ESE,104,3.0,3.0,95,0.00,,,0.00,WeatherCatV1.10B1784,2013-02-12 17:08:00,
2013-02-12 09:13:00,43.0,41.7,30.35,East,98,1.0,5.0,95,0.00,,,0.00,WeatherCatV1.10B1784,2013-02-12 17:13:00,
2013-02-12 09:18:00,43.1,41.8,30.35,ESE,113,4.0,5.0,95,0.00,,,0.00,WeatherCatV1.10B1784,2013-02-12 17:18:00,
2013-02-12 09:23:00,43.1,41.8,30.34,East,92,5.0,5.0,95,0.00,,,0.00,WeatherCatV1.10B1784,2013-02-12 17:23:00,
2013-02-12 09:28:00,43.2,41.9,30.34,East,99,5.0,7.0,95,0.00,,,0.00,WeatherCatV1.10B1784,2013-02-12 17:28:00,
2013-02-12 09:33:00,43.3,42.0,30.34,ESE,120,2.0,6.0,95,0.00,,,0.00,WeatherCatV1.10B1784,2013-02-12 17:33:00,
2013-02-12 09:38:00,43.4,42.1,30.33,East,88,3.0,7.0,95,0.00,,,0.00,WeatherCatV1.10B1784,2013-02-12 17:38:00,
2013-02-12 09:43:00,43.5,42.2,30.33,East,94,5.0,8.0,95,0.00,,,0.00,WeatherCatV1.10B1784,2013-02-12 17:43:00,
2013-02-12 09:48:00,43.6,42.3,30.34,East,101,4.0,5.0,95,0.00,,,0.00,WeatherCatV1.10B1784,2013-02-12 17:48:00,
2013-02-12 09:53:00,43.5,41.9,30.33,SE,125,5.0,8.0,94,0.00,,,0.00,WeatherCatV1.10B1784,2013-02-12 17:53:00,
2013-02-12 09:58:00,43.6,42.0,30.34,SE,130,5.0,9.0,94,0.00,,,0.00,WeatherCatV1.10B1784,2013-02-12 17:58:00,
2013-02-12 10:03:00,43.7,42.1,30.33,East,92,8.0,8.0,94,0.00,,,0.00,WeatherCatV1.10B1784,2013-02-12 18:03:00,
2013-02-12 10:08:00,43.9,42.3,30.33,East,97,2.0,9.0,94,0.00,,,0.00,WeatherCatV1.10B1784,2013-02-12 18:08:00,
2013-02-12 10:13:00,43.9,42.3,30.34,ESE,117,6.0,8.0,94,0.00,,,0.00,WeatherCatV1.10B1784,2013-02-12 18:13:00,
2013-02-12 10:18:00,44.0,42.4,30.34,SE,130,4.0,7.0,94,0.00,,,0.00,WeatherCatV1.10B1784,2013-02-12 18:18:00,
2013-02-12 10:23:00,44.1,42.5,30.34,ESE,115,3.0,5.0,94,0.00,,,0.00,WeatherCatV1.10B1784,2013-02-12 18:23:00,
2013-02-12 10:28:00,44.0,42.4,30.34,ESE,104,3.0,5.0,94,0.00,,,0.00,WeatherCatV1.10B1784,2013-02-12 18:28:00,
2013-02-12 10:33:00,44.0,42.4,30.34,ESE,115,3.0,6.0,94,0.00,,,0.00,WeatherCatV1.10B1784,2013-02-12 18:33:00,
2013-02-12 10:38:00,44.1,42.5,30.34,ESE,117,3.0,4.0,94,0.00,,,0.00,WeatherCatV1.10B1784,2013-02-12 18:38:00,
2013-02-12 10:43:00,44.3,42.7,30.34,SE,127,10.0,10.0,94,0.00,,,0.00,WeatherCatV1.10B1784,2013-02-12 18:43:00,
2013-02-12 10:48:00,44.2,42.3,30.34,East,82,2.0,7.0,93,0.00,,,0.00,WeatherCatV1.10B1784,2013-02-12 18:48:00,
2013-02-12 10:53:00,44.2,42.6,30.34,East,84,2.0,4.0,94,0.00,,,0.00,WeatherCatV1.10B1784,2013-02-12 18:53:00,
2013-02-12 10:58:00,44.2,42.3,30.34,ESE,116,2.0,5.0,93,0.00,,,0.00,WeatherCatV1.10B1784,2013-02-12 18:58:00,
2013-02-12 11:03:00,44.2,42.3,30.34,East,95,3.0,8.0,93,0.00,,,0.00,WeatherCatV1.10B1784,2013-02-12 19:03:00,
2013-02-12 11:08:00,44.3,42.7,30.34,SE,133,3.0,5.0,94,0.00,,,0.00,WeatherCatV1.10B1784,2013-02-12 19:08:00,
2013-02-12 11:13:00,44.5,42.9,30.33,ESE,120,4.0,6.0,94,0.00,,,0.00,WeatherCatV1.10B1784,2013-02-12 19:13:00,
2013-02-12 11:18:00,44.6,42.7,30.33,East,93,7.0,11.0,93,0.00,,,0.00,WeatherCatV1.10B1784,2013-02-12 19:18:00,
2013-02-12 11:23:00,44.9,43.3,30.32,ESE,103,2.0,7.0,94,0.00,,,0.00,WeatherCatV1.10B1784,2013-02-12 19:23:00,
2013-02-12 11:28:00,45.1,43.5,30.32,ESE,107,2.0,5.0,94,0.00,,,0.00,WeatherCatV1.10B1784,2013-02-12 19:28:00,
2013-02-12 11:33:00,45.0,43.1,30.32,East,95,7.0,9.0,93,0.00,,,0.00,WeatherCatV1.10B1784,2013-02-12 19:33:00,
2013-02-12 11:38:00,45.1,43.2,30.31,ESE,121,9.0,11.0,93,0.00,,,0.00,WeatherCatV1.10B1784,2013-02-12 19:38:00,
2013-02-12 11:43:00,45.4,43.2,30.30,East,98,8.0,11.0,92,0.00,,,0.00,WeatherCatV1.10B1784,2013-02-12 19:43:00,
2013-02-12 11:48:00,45.5,43.3,30.30,SSE,161,8.0,11.0,92,0.00,,,0.00,WeatherCatV1.10B1784,2013-02-12 19:48:00,
2013-02-12 11:53:00,45.5,43.0,30.29,ESE,117,4.0,8.0,91,0.00,,,0.00,WeatherCatV1.10B1784,2013-02-12 19:53:00,
2013-02-12 11:58:00,45.6,42.8,30.29,ESE,111,2.0,12.0,90,0.00,,,0.00,WeatherCatV1.10B1784,2013-02-12 19:58:00,
2013-02-12 12:03:00,45.6,42.8,30.29,ESE,103,3.0,12.0,90,0.00,,,0.00,WeatherCatV1.10B1784,2013-02-12 20:03:00,
2013-02-12 12:08:00,45.5,42.4,30.29,ESE,114,8.0,12.0,89,0.00,,,0.00,WeatherCatV1.10B1784,2013-02-12 20:08:00,
2013-02-12 12:13:00,45.5,42.4,30.30,SE,143,5.0,10.0,89,0.00,,,0.00,WeatherCatV1.10B1784,2013-02-12 20:13:00,
2013-02-12 12:18:00,45.6,42.5,30.29,SE,132,3.0,12.0,89,0.00,,,0.00,WeatherCatV1.10B1784,2013-02-12 20:18:00,
2013-02-12 12:23:00,45.8,42.7,30.28,SE,130,5.0,7.0,89,0.00,,,0.00,WeatherCatV1.10B1784,2013-02-12 20:23:00,
2013-02-12 12:28:00,45.9,43.1,30.28,SE,137,6.0,9.0,90,0.00,,,0.00,WeatherCatV1.10B1784,2013-02-12 20:28:00,
2013-02-12 12:33:00,45.7,42.9,30.28,SE,143,7.0,10.0,90,0.00,,,0.00,WeatherCatV1.10B1784,2013-02-12 20:33:00,
2013-02-12 12:38:00,45.6,42.8,30.28,ESE,116,7.0,12.0,90,0.00,,,0.00,WeatherCatV1.10B1784,2013-02-12 20:38:00,
2013-02-12 12:43:00,45.5,42.7,30.28,SE,129,12.0,12.0,90,0.00,,,0.00,WeatherCatV1.10B1784,2013-02-12 20:43:00,
2013-02-12 12:48:00,45.6,42.8,30.28,ESE,110,6.0,9.0,90,0.00,,,0.00,WeatherCatV1.10B1784,2013-02-12 20:48:00,
2013-02-12 12:53:00,45.8,42.7,30.27,SE,146,5.0,8.0,89,0.00,,,0.00,WeatherCatV1.10B1784,2013-02-12 20:53:00,
2013-02-12 12:58:00,46.1,42.7,30.27,SE,127,9.0,9.0,88,0.00,,,0.00,WeatherCatV1.10B1784,2013-02-12 20:58:00,
2013-02-12 13:03:00,46.4,42.7,30.28,East,101,0.0,4.0,87,0.00,,,0.00,WeatherCatV1.10B1784,2013-02-12 21:03:00,
2013-02-12 13:08:00,46.7,42.4,30.28,ESE,115,3.0,5.0,85,0.00,,,0.00,WeatherCatV1.10B1784,2013-02-12 21:08:00,
2013-02-12 13:13:00,46.9,42.3,30.28,SE,127,4.0,11.0,84,0.00,,,0.00,WeatherCatV1.10B1784,2013-02-12 21:13:00,
2013-02-12 13:18:00,47.2,42.9,30.28,ENE,63,10.0,12.0,85,0.00,,,0.00,WeatherCatV1.10B1784,2013-02-12 21:18:00,
2013-02-12 13:23:00,47.3,42.7,30.29,ESE,110,8.0,10.0,84,0.00,,,0.00,WeatherCatV1.10B1784,2013-02-12 21:23:00,
2013-02-12 13:28:00,47.5,42.9,30.28,ESE,105,2.0,8.0,84,0.00,,,0.00,WeatherCatV1.10B1784,2013-02-12 21:28:00,
2013-02-12 13:33:00,47.5,43.2,30.28,ESE,104,4.0,7.0,85,0.00,,,0.00,WeatherCatV1.10B1784,2013-02-12 21:33:00,
2013-02-12 13:38:00,47.2,43.5,30.28,SE,143,5.0,5.0,87,0.00,,,0.00,WeatherCatV1.10B1784,2013-02-12 21:38:00,
2013-02-12 13:43:00,47.2,43.5,30.27,East,98,8.0,8.0,87,0.00,,,0.00,WeatherCatV1.10B1784,2013-02-12 21:43:00,
2013-02-12 13:48:00,47.4,43.4,30.27,East,84,2.0,10.0,86,0.00,,,0.00,WeatherCatV1.10B1784,2013-02-12 21:48:00,
2013-02-12 13:53:00,47.5,43.8,30.27,East,99,2.0,7.0,87,0.00,,,0.00,WeatherCatV1.10B1784,2013-02-12 21:53:00,
2013-02-12 13:58:00,47.3,43.9,30.27,East,99,5.0,8.0,88,0.00,,,0.00,WeatherCatV1.10B1784,2013-02-12 21:58:00,
2013-02-12 14:03:00,47.0,43.9,30.27,ENE,64,4.0,8.0,89,0.00,,,0.00,WeatherCatV1.10B1784,2013-02-12 22:03:00,
2013-02-12 14:08:00,46.9,44.1,30.26,East,98,2.0,8.0,90,0.00,,,0.00,WeatherCatV1.10B1784,2013-02-12 22:08:00,
2013-02-12 14:13:00,46.9,44.1,30.26,ENE,77,9.0,9.0,90,0.00,,,0.00,WeatherCatV1.10B1784,2013-02-12 22:13:00,
2013-02-12 14:18:00,47.0,44.2,30.26,North,8,2.0,5.0,90,0.00,,,0.00,WeatherCatV1.10B1784,2013-02-12 22:18:00,
2013-02-12 14:23:00,47.3,44.5,30.26,East,97,5.0,8.0,90,0.00,,,0.00,WeatherCatV1.10B1784,2013-02-12 22:23:00,
2013-02-12 14:28:00,47.8,44.7,30.26,ENE,70,2.0,8.0,89,0.00,,,0.00,WeatherCatV1.10B1784,2013-02-12 22:28:00,
2013-02-12 14:33:00,48.2,44.8,30.26,ESE,110,6.0,9.0,88,0.00,,,0.00,WeatherCatV1.10B1784,2013-02-12 22:33:00,
2013-02-12 14:38:00,48.4,44.7,30.26,ESE,114,5.0,11.0,87,0.00,,,0.00,WeatherCatV1.10B1784,2013-02-12 22:38:00,
2013-02-12 14:43:00,48.5,44.5,30.25,ESE,121,8.0,11.0,86,0.00,,,0.00,WeatherCatV1.10B1784,2013-02-12 22:43:00,
2013-02-12 14:48:00,48.5,44.5,30.26,ESE,120,6.0,10.0,86,0.00,,,0.00,WeatherCatV1.10B1784,2013-02-12 22:48:00,
2013-02-12 14:53:00,48.7,44.7,30.25,East,99,5.0,7.0,86,0.00,,,0.00,WeatherCatV1.10B1784,2013-02-12 22:53:00,
2013-02-12 14:58:00,48.8,44.8,30.25,ESE,119,3.0,6.0,86,0.00,,,0.00,WeatherCatV1.10B1784,2013-02-12 22:58:00,
2013-02-12 15:03:00,49.1,45.1,30.25,ESE,120,6.0,6.0,86,0.00,,,0.00,WeatherCatV1.10B1784,2013-02-12 23:03:00,
2013-02-12 15:08:00,49.1,45.1,30.25,ESE,113,3.0,9.0,86,0.00,,,0.00,WeatherCatV1.10B1784,2013-02-12 23:08:00,
2013-02-12 15:13:00,48.8,44.8,30.25,SE,146,7.0,13.0,86,0.00,,,0.00,WeatherCatV1.10B1784,2013-02-12 23:13:00,
2013-02-12 15:18:00,48.7,44.7,30.25,SE,138,3.0,9.0,86,0.00,,,0.00,WeatherCatV1.10B1784,2013-02-12 23:18:00,
2013-02-12 15:23:00,48.6,44.6,30.25,East,92,3.0,12.0,86,0.00,,,0.00,WeatherCatV1.10B1784,2013-02-12 23:23:00,
2013-02-12 15:28:00,48.6,44.6,30.25,ESE,113,4.0,10.0,86,0.00,,,0.00,WeatherCatV1.10B1784,2013-02-12 23:28:00,
2013-02-12 15:33:00,48.6,44.6,30.24,SE,132,3.0,9.0,86,0.00,,,0.00,WeatherCatV1.10B1784,2013-02-12 23:33:00,
2013-02-12 15:38:00,48.6,44.6,30.25,SE,131,9.0,10.0,86,0.00,,,0.00,WeatherCatV1.10B1784,2013-02-12 23:38:00,
2013-02-12 15:43:00,48.7,44.7,30.24,SE,145,4.0,7.0,86,0.00,,,0.00,WeatherCatV1.10B1784,2013-02-12 23:43:00,
2013-02-12 15:48:00,48.9,44.9,30.24,ESE,116,3.0,5.0,86,0.00,,,0.00,WeatherCatV1.10B1784,2013-02-12 23:48:00,
2013-02-12 15:53:00,49.0,45.0,30.24,ESE,113,8.0,8.0,86,0.00,,,0.00,WeatherCatV1.10B1784,2013-02-12 23:53:00,
2013-02-12 15:58:00,49.2,44.9,30.23,ESE,121,8.0,10.0,85,0.00,,,0.00,WeatherCatV1.10B1784,2013-02-12 23:58:00,
2013-02-12 16:03:00,49.2,44.9,30.23,SE,139,3.0,7.0,85,0.00,,,0.00,WeatherCatV1.10B1784,2013-02-13 00:03:00,
2013-02-12 16:08:00,49.1,44.8,30.23,ESE,117,6.0,10.0,85,0.00,,,0.00,WeatherCatV1.10B1784,2013-02-13 00:08:00,
2013-02-12 16:13:00,49.0,44.7,30.23,SE,146,4.0,7.0,85,0.00,,,0.00,WeatherCatV1.10B1784,2013-02-13 00:13:00,
2013-02-12 16:18:00,48.9,44.9,30.24,ESE,111,2.0,5.0,86,0.00,,,0.00,WeatherCatV1.10B1784,2013-02-13 00:18:00,
2013-02-12 16:23:00,48.8,44.5,30.23,East,99,2.0,7.0,85,0.00,,,0.00,WeatherCatV1.10B1784,2013-02-13 00:23:00,
2013-02-12 16:28:00,48.7,44.7,30.22,SE,132,8.0,11.0,86,0.00,,,0.00,WeatherCatV1.10B1784,2013-02-13 00:28:00,
2013-02-12 16:33:00,48.5,44.2,30.23,SSE,160,4.0,7.0,85,0.00,,,0.00,WeatherCatV1.10B1784,2013-02-13 00:33:00,
2013-02-12 16:38:00,48.3,44.3,30.23,ESE,108,4.0,4.0,86,0.00,,,0.00,WeatherCatV1.10B1784,2013-02-13 00:38:00,
2013-02-12 16:43:00,48.2,44.2,30.22,ESE,115,3.0,6.0,86,0.00,,,0.00,WeatherCatV1.10B1784,2013-02-13 00:43:00,
2013-02-12 16:48:00,48.0,44.3,30.21,SSE,161,5.0,9.0,87,0.00,,,0.00,WeatherCatV1.10B1784,2013-02-13 00:48:00,
2013-02-12 16:53:00,47.8,44.1,30.22,ESE,113,10.0,10.0,87,0.00,,,0.00,WeatherCatV1.10B1784,2013-02-13 00:53:00,
2013-02-12 16:58:00,47.7,44.0,30.22,ESE,110,2.0,6.0,87,0.00,,,0.00,WeatherCatV1.10B1784,2013-02-13 00:58:00,
2013-02-12 17:03:00,47.7,44.0,30.21,ESE,120,5.0,7.0,87,0.00,,,0.00,WeatherCatV1.10B1784,2013-02-13 01:03:00,
2013-02-12 17:08:00,47.6,43.9,30.21,SE,124,5.0,8.0,87,0.00,,,0.00,WeatherCatV1.10B1784,2013-02-13 01:08:00,
2013-02-12 17:13:00,47.5,44.1,30.21,SE,139,3.0,7.0,88,0.00,,,0.00,WeatherCatV1.10B1784,2013-02-13 01:13:00,
2013-02-12 17:18:00,47.3,43.9,30.21,SSE,155,2.0,4.0,88,0.00,,,0.00,WeatherCatV1.10B1784,2013-02-13 01:18:00,
2013-02-12 17:23:00,47.3,43.9,30.21,ESE,115,3.0,5.0,88,0.00,,,0.00,WeatherCatV1.10B1784,2013-02-13 01:23:00,
2013-02-12 17:28:00,47.2,43.8,30.21,East,82,1.0,4.0,88,0.00,,,0.00,WeatherCatV1.10B1784,2013-02-13 01:28:00,
2013-02-12 17:33:00,47.2,43.8,30.21,ESE,116,2.0,6.0,88,0.00,,,0.00,WeatherCatV1.10B1784,2013-02-13 01:33:00,
2013-02-12 17:38:00,47.1,43.7,30.21,East,100,4.0,6.0,88,0.00,,,0.00,WeatherCatV1.10B1784,2013-02-13 01:38:00,
2013-02-12 17:43:00,46.8,43.7,30.20,ESE,111,3.0,3.0,89,0.00,,,0.00,WeatherCatV1.10B1784,2013-02-13 01:43:00,
2013-02-12 17:48:00,46.7,43.9,30.20,SE,133,2.0,4.0,90,0.00,,,0.00,WeatherCatV1.10B1784,2013-02-13 01:48:00,
2013-02-12 17:53:00,46.9,43.8,30.20,SSE,167,2.0,3.0,89,0.00,,,0.00,WeatherCatV1.10B1784,2013-02-13 01:53:00,
2013-02-12 17:58:00,46.8,43.7,30.20,SSW,201,2.0,3.0,89,0.00,,,0.00,WeatherCatV1.10B1784,2013-02-13 01:58:00,
2013-02-12 18:03:00,46.7,43.6,30.20,SE,138,1.0,1.0,89,0.00,,,0.00,WeatherCatV1.10B1784,2013-02-13 02:03:00,
2013-02-12 18:08:00,46.5,43.4,30.19,SE,125,1.0,4.0,89,0.00,,,0.00,WeatherCatV1.10B1784,2013-02-13 02:08:00,
2013-02-12 18:13:00,46.3,43.2,30.20,SE,146,1.0,2.0,89,0.00,,,0.00,WeatherCatV1.10B1784,2013-02-13 02:13:00,
2013-02-12 18:18:00,46.2,43.1,30.20,ESE,123,1.0,3.0,89,0.00,,,0.00,WeatherCatV1.10B1784,2013-02-13 02:18:00,
2013-02-12 18:23:00,46.3,43.2,30.20,SW,228,0.0,1.0,89,0.00,,,0.00,WeatherCatV1.10B1784,2013-02-13 02:23:00,
2013-02-12 18:28:00,46.6,43.5,30.20,South,183,3.0,3.0,89,0.00,,,0.00,WeatherCatV1.10B1784,2013-02-13 02:28:00,
2013-02-12 18:33:00,46.6,43.2,30.20,SSE,150,1.0,3.0,88,0.00,,,0.00,WeatherCatV1.10B1784,2013-02-13 02:33:00,
2013-02-12 18:38:00,46.4,43.0,30.20,South,179,2.0,4.0,88,0.00,,,0.00,WeatherCatV1.10B1784,2013-02-13 02:38:00,
2013-02-12 18:43:00,46.4,43.0,30.20,SE,136,0.0,2.0,88,0.00,,,0.00,WeatherCatV1.10B1784,2013-02-13 02:43:00,
2013-02-12 18:48:00,46.3,42.9,30.20,South,170,4.0,4.0,88,0.00,,,0.00,WeatherCatV1.10B1784,2013-02-13 02:48:00,
2013-02-12 18:52:00,46.4,42.7,30.20,SE,130,4.0,5.0,87,0.00,,,0.00,WeatherCatV1.10B1784,2013-02-13 02:52:00,
2013-02-12 18:57:00,47.4,42.8,30.20,SW,221,2.0,3.0,84,0.00,,,0.00,WeatherCatV1.10B1784,2013-02-13 02:57:00,
2013-02-12 19:02:00,48.5,42.3,30.20,West,262,5.0,9.0,79,0.00,,,0.00,WeatherCatV1.10B1784,2013-02-13 03:02:00,
2013-02-12 19:07:00,49.6,42.3,30.19,South,187,8.0,12.0,76,0.00,,,0.00,WeatherCatV1.10B1784,2013-02-13 03:07:00,
2013-02-12 19:12:00,49.9,42.3,30.19,WSW,238,3.0,6.0,75,0.00,,,0.00,WeatherCatV1.10B1784,2013-02-13 03:12:00,
2013-02-12 19:17:00,49.9,42.3,30.18,ESE,108,0.0,6.0,75,0.00,,,0.00,WeatherCatV1.10B1784,2013-02-13 03:17:00,
2013-02-12 19:22:00,49.8,42.2,30.18,SW,217,4.0,8.0,75,0.00,,,0.00,WeatherCatV1.10B1784,2013-02-13 03:22:00,
2013-02-12 19:27:00,50.2,41.9,30.18,WSW,256,1.0,5.0,73,0.00,,,0.00,WeatherCatV1.10B1784,2013-02-13 03:27:00,
2013-02-12 19:32:00,50.3,42.0,30.19,WSW,248,2.0,2.0,73,0.00,,,0.00,WeatherCatV1.10B1784,2013-02-13 03:32:00,
2013-02-12 19:37:00,50.0,42.4,30.19,NE,51,3.0,10.0,75,0.00,,,0.00,WeatherCatV1.10B1784,2013-02-13 03:37:00,
2013-02-12 19:42:00,48.0,43.1,30.19,ENE,78,7.0,9.0,83,0.00,,,0.00,WeatherCatV1.10B1784,2013-02-13 03:42:00,
2013-02-12 19:47:00,46.9,43.2,30.19,ESE,103,6.0,11.0,87,0.00,,,0.00,WeatherCatV1.10B1784,2013-02-13 03:47:00,
2013-02-12 19:52:00,46.7,43.3,30.19,SE,146,1.0,4.0,88,0.00,,,0.00,WeatherCatV1.10B1784,2013-02-13 03:52:00,
2013-02-12 19:57:00,46.9,42.9,30.18,SSE,148,1.0,2.0,86,0.00,,,0.00,WeatherCatV1.10B1784,2013-02-13 03:57:00,
2013-02-12 20:02:00,47.1,42.8,30.18,SE,131,2.0,2.0,85,0.00,,,0.00,WeatherCatV1.10B1784,2013-02-13 04:02:00,
2013-02-12 20:07:00,47.2,43.2,30.19,East,82,6.0,7.0,86,0.00,,,0.00,WeatherCatV1.10B1784,2013-02-13 04:07:00,
2013-02-12 20:12:00,46.9,42.9,30.20,WSW,243,0.0,3.0,86,0.00,,,0.00,WeatherCatV1.10B1784,2013-02-13 04:12:00,
2013-02-12 20:17:00,46.9,43.2,30.20,ESE,103,2.0,4.0,87,0.00,,,0.00,WeatherCatV1.10B1784,2013-02-13 04:17:00,
2013-02-12 20:22:00,46.6,42.9,30.20,SE,124,3.0,7.0,87,0.00,,,0.00,WeatherCatV1.10B1784,2013-02-13 04:22:00,
2013-02-12 20:27:00,46.3,42.9,30.20,ESE,103,3.0,3.0,88,0.00,,,0.00,WeatherCatV1.10B1784,2013-02-13 04:27:00,
2013-02-12 20:32:00,46.1,42.7,30.20,South,181,0.0,4.0,88,0.00,,,0.00,WeatherCatV1.10B1784,2013-02-13 04:32:00,
2013-02-12 20:37:00,45.8,42.5,30.19,South,176,3.0,4.0,88,0.00,,,0.00,WeatherCatV1.10B1784,2013-02-13 04:37:00,
2013-02-12 20:42:00,45.6,42.5,30.19,South,169,1.0,3.0,89,0.00,,,0.00,WeatherCatV1.10B1784,2013-02-13 04:42:00,
2013-02-12 20:47:00,45.5,42.2,30.19,ENE,60,2.0,3.0,88,0.00,,,0.00,WeatherCatV1.10B1784,2013-02-13 04:47:00,
2013-02-12 20:52:00,45.6,42.5,30.19,ENE,77,8.0,10.0,89,0.00,,,0.00,WeatherCatV1.10B1784,2013-02-13 04:52:00,
2013-02-12 20:57:00,45.4,42.9,30.19,SE,139,2.0,6.0,91,0.00,,,0.00,WeatherCatV1.10B1784,2013-02-13 04:57:00,
2013-02-12 21:00:00,45.3,42.8,30.19,ESE,116,4.0,8.0,91,0.00,,,0.00,WeatherCatV1.10B1784,2013-02-13 05:00:00,
2013-02-12 21:05:00,45.4,42.6,30.19,SSE,148,2.0,3.0,90,0.00,,,0.00,WeatherCatV1.10B1784,2013-02-13 05:05:00,
2013-02-12 21:10:00,45.3,42.5,30.19,SSE,152,3.0,5.0,90,0.00,,,0.00,WeatherCatV1.10B1784,2013-02-13 05:10:00,
2013-02-12 21:15:00,45.1,42.3,30.19,SSW,204,2.0,3.0,90,0.00,,,0.00,WeatherCatV1.10B1784,2013-02-13 05:15:00,
2013-02-12 21:20:00,45.0,42.2,30.19,East,84,1.0,3.0,90,0.00,,,0.00,WeatherCatV1.10B1784,2013-02-13 05:20:00,
2013-02-12 21:25:00,45.1,42.3,30.19,East,95,3.0,6.0,90,0.00,,,0.00,WeatherCatV1.10B1784,2013-02-13 05:25:00,
2013-02-12 21:30:00,45.2,42.4,30.20,ESE,117,2.0,4.0,90,0.00,,,0.00,WeatherCatV1.10B1784,2013-02-13 05:30:00,
2013-02-12 21:35:00,45.2,42.4,30.20,South,188,0.0,1.0,90,0.00,,,0.00,WeatherCatV1.10B1784,2013-02-13 05:35:00,
2013-02-12 21:40:00,44.6,41.6,30.20,SSW,210,4.0,6.0,89,0.00,,,0.00,WeatherCatV1.10B1784,2013-02-13 05:40:00,
2013-02-12 21:45:00,44.3,41.6,30.20,SW,214,4.0,6.0,90,0.00,,,0.00,WeatherCatV1.10B1784,2013-02-13 05:45:00,
2013-02-12 21:50:00,44.6,41.8,30.20,SSW,197,3.0,8.0,90,0.00,,,0.00,WeatherCatV1.10B1784,2013-02-13 05:50:00,
2013-02-12 21:55:00,45.4,41.5,30.19,WSW,240,4.0,9.0,86,0.00,,,0.00,WeatherCatV1.10B1784,2013-02-13 05:55:00,
2013-02-12 22:00:00,46.9,40.7,30.20,WSW,252,3.0,7.0,79,0.00,,,0.00,WeatherCatV1.10B1784,2013-02-13 06:00:00,
2013-02-12 22:05:00,47.6,40.4,30.19,WSW,249,4.0,7.0,76,0.00,,,0.00,WeatherCatV1.10B1784,2013-02-13 06:05:00,
2013-02-12 22:10:00,47.8,40.6,30.20,SW,231,5.0,5.0,76,0.00,,,0.00,WeatherCatV1.10B1784,2013-02-13 06:10:00,
2013-02-12 22:15:00,47.8,40.3,30.20,SW,216,1.0,3.0,75,0.00,,,0.00,WeatherCatV1.10B1784,2013-02-13 06:15:00,
2013-02-12 22:20:00,47.5,40.0,30.21,WSW,243,4.0,7.0,75,0.00,,,0.00,WeatherCatV1.10B1784,2013-02-13 06:20:00,
2013-02-12 22:25:00,47.5,40.0,30.21,WSW,249,7.0,7.0,75,0.00,,,0.00,WeatherCatV1.10B1784,2013-02-13 06:25:00,
2013-02-12 22:30:00,47.5,40.3,30.22,West,266,3.0,6.0,76,0.00,,,0.00,WeatherCatV1.10B1784,2013-02-13 06:30:00,
2013-02-12 22:35:00,47.4,39.9,30.22,SW,235,1.0,2.0,75,0.00,,,0.00,WeatherCatV1.10B1784,2013-02-13 06:35:00,
2013-02-12 22:40:00,47.1,40.3,30.22,WNW,298,0.0,1.0,77,0.00,,,0.00,WeatherCatV1.10B1784,2013-02-13 06:40:00,
2013-02-12 22:45:00,46.3,42.0,30.22,NNW,343,5.0,8.0,85,0.00,,,0.00,WeatherCatV1.10B1784,2013-02-13 06:45:00,
2013-02-12 22:50:00,45.5,42.2,30.23,NNE,15,5.0,8.0,88,0.00,,,0.00,WeatherCatV1.10B1784,2013-02-13 06:50:00,
2013-02-12 22:55:00,45.1,42.1,30.23,WSW,245,0.0,1.0,89,0.00,,,0.00,WeatherCatV1.10B1784,2013-02-13 06:55:00,
2013-02-12 23:00:00,44.6,41.8,30.23,South,179,1.0,4.0,90,0.00,,,0.00,WeatherCatV1.10B1784,2013-02-13 07:00:00,
2013-02-12 23:05:00,44.2,41.5,30.23,SSW,205,3.0,5.0,90,0.00,,,0.00,WeatherCatV1.10B1784,2013-02-13 07:05:00,
2013-02-12 23:10:00,44.1,41.4,30.22,SW,217,4.0,5.0,90,0.00,,,0.00,WeatherCatV1.10B1784,2013-02-13 07:10:00,
2013-02-12 23:15:00,43.8,40.8,30.22,SW,226,3.0,5.0,89,0.00,,,0.00,WeatherCatV1.10B1784,2013-02-13 07:15:00,
2013-02-12 23:20:00,43.9,40.6,30.22,SW,233,2.0,3.0,88,0.00,,,0.00,WeatherCatV1.10B1784,2013-02-13 07:20:00,
2013-02-12 23:25:00,43.9,40.3,30.22,SSE,163,1.0,1.0,87,0.00,,,0.00,WeatherCatV1.10B1784,2013-02-13 07:25:00,
2013-02-12 23:30:00,43.5,39.6,30.22,South,186,2.0,4.0,86,0.00,,,0.00,WeatherCatV1.10B1784,2013-02-13 07:30:00,
2013-02-12 23:35:00,43.6,39.7,30.23,SSW,210,3.0,5.0,86,0.00,,,0.00,WeatherCatV1.10B1784,2013-02-13 07:35:00,
2013-02-12 23:40:00,43.7,39.5,30.22,SW,217,2.0,3.0,85,0.00,,,0.00,WeatherCatV1.10B1784,2013-02-13 07:40:00,
2013-02-12 23:45:00,43.6,39.1,30.23,SW,226,3.0,3.0,84,0.00,,,0.00,WeatherCatV1.10B1784,2013-02-13 07:45:00,
2013-02-12 23:50:00,43.7,39.2,30.23,SW,222,2.0,3.0,84,0.00,,,0.00,WeatherCatV1.10B1784,2013-02-13 07:50:00,
2013-02-12 23:52:00,43.7,38.9,30.23,WSW,240,0.0,1.0,83,0.00,,,0.00,WeatherCatV1.10B1784,2013-02-13 07:52:00,
2013-02-12 23:57:00,43.4,38.6,30.23,NE,36,1.0,1.0,83,0.00,,,0.00,WeatherCatV1.10B1784,2013-02-13 07:57:00,